Accueil
METAR-TAF:

METAR-TAF

Aéroports :

Paderborn-Lippstadt, Allemagne

latitude: 51-37N, longitude: 008-37E, altitude: 213 m

Observation

Le bulletin a été fait il y a 17 minutes, à 04:20 UTC
Vent 3 kt de est/nord-est
Température 5°C
Humidité 93%
Pression 1020 hPa
Visibilité 10 km ou plus
pas de nuages en-dessous de 1500 mètres et pas de cumulonimbus.

METAR: EDLP 280420Z 06003KT CAVOK 05/04 Q1020

Heure: 06:37 (04:37 UTC)

Prévision

Le bulletin a été fait il y a 1 heure et 1 minutes, à 03:36 UTC
Prévision valable du 28 à 03 UTC au 28 à 24 UTC
Vent 3 kt de direction variable
Visibilité 10 km ou plus
pas de nuages en-dessous de 1500 mètres et pas de cumulonimbus.
Evoluant progressivement
du 28 à 04 UTC au 28 à 06 UTC
Vent 8 kt de sud/sud-est

TAF: EDLP 280336Z 2803/2824 VRB03KT CAVOK BECMG 2804/2806 16008KT

Observations et prévisions météorologiques de plus de 4000 aéroports (messages METAR et TAF).

Les stations disponibles sont représentées par des disques jaunes et rouges sur la carte.

Passer la souris dessus pour voir le nom de la station.

Cliquer dessus pour voir les observations et prévisions météorologiques.

Pour changer de carte: cliquez sur les boutons verts avec une croix noire pour zoomer, sur le bouton vert avec un tiret pour effectuer un zoom arrière, ou sur les flèches vertes pour les cartes adjacentes.


METAR-TAF: